sensor_id;sensor_type;location;lat;lon;timestamp;P1;durP1;ratioP1;P2;durP2;ratioP2
65279;SDS011;51878;55.748;48.742;2023-06-26T00:01:49;4.93;;;2.90;;
65279;SDS011;51878;55.748;48.742;2023-06-26T00:06:52;10.68;;;3.97;;
65279;SDS011;51878;55.748;48.742;2023-06-26T00:11:54;3.33;;;2.90;;
65279;SDS011;51878;55.748;48.742;2023-06-26T00:16:56;4.47;;;2.60;;
65279;SDS011;51878;55.748;48.742;2023-06-26T00:21:58;3.38;;;2.70;;
65279;SDS011;51878;55.748;48.742;2023-06-26T00:27:01;3.55;;;3.00;;
65279;SDS011;51878;55.748;48.742;2023-06-26T00:32:03;5.30;;;3.08;;
65279;SDS011;51878;55.748;48.742;2023-06-26T00:37:06;6.35;;;3.47;;
65279;SDS011;51878;55.748;48.742;2023-06-26T00:42:08;3.63;;;2.78;;
65279;SDS011;51878;55.748;48.742;2023-06-26T00:47:11;3.13;;;2.78;;
65279;SDS011;51878;55.748;48.742;2023-06-26T00:52:17;4.00;;;2.80;;
65279;SDS011;51878;55.748;48.742;2023-06-26T00:57:19;4.60;;;2.92;;
65279;SDS011;51878;55.748;48.742;2023-06-26T01:02:25;5.18;;;3.10;;
65279;SDS011;51878;55.748;48.742;2023-06-26T01:07:29;4.05;;;2.78;;
65279;SDS011;51878;55.748;48.742;2023-06-26T01:12:33;4.75;;;3.05;;
65279;SDS011;51878;55.748;48.742;2023-06-26T01:17:37;3.55;;;2.90;;
65279;SDS011;51878;55.748;48.742;2023-06-26T01:22:56;3.80;;;3.25;;
65279;SDS011;51878;55.748;48.742;2023-06-26T01:28:11;5.72;;;3.05;;
65279;SDS011;51878;55.748;48.742;2023-06-26T01:33:16;4.53;;;3.30;;
65279;SDS011;51878;55.748;48.742;2023-06-26T01:38:20;5.10;;;2.92;;
65279;SDS011;51878;55.748;48.742;2023-06-26T01:43:31;3.58;;;3.15;;
65279;SDS011;51878;55.748;48.742;2023-06-26T01:49:24;6.00;;;3.20;;
65279;SDS011;51878;55.748;48.742;2023-06-26T01:54:10;3.40;;;3.10;;
65279;SDS011;51878;55.748;48.742;2023-06-26T01:59:19;3.93;;;3.40;;
65279;SDS011;51878;55.748;48.742;2023-06-26T02:04:23;3.50;;;3.20;;
65279;SDS011;51878;55.748;48.742;2023-06-26T02:09:25;5.05;;;3.10;;
65279;SDS011;51878;55.748;48.742;2023-06-26T02:14:28;6.18;;;3.00;;
65279;SDS011;51878;55.748;48.742;2023-06-26T02:19:30;5.93;;;2.70;;
65279;SDS011;51878;55.748;48.742;2023-06-26T02:24:32;5.95;;;2.70;;
65279;SDS011;51878;55.748;48.742;2023-06-26T02:29:35;5.47;;;3.13;;
65279;SDS011;51878;55.748;48.742;2023-06-26T02:34:38;5.13;;;2.90;;
65279;SDS011;51878;55.748;48.742;2023-06-26T02:39:40;3.30;;;2.78;;
65279;SDS011;51878;55.748;48.742;2023-06-26T02:44:42;3.03;;;2.72;;
65279;SDS011;51878;55.748;48.742;2023-06-26T02:49:46;4.13;;;3.10;;
65279;SDS011;51878;55.748;48.742;2023-06-26T02:54:48;4.70;;;2.78;;
65279;SDS011;51878;55.748;48.742;2023-06-26T02:59:53;3.85;;;3.38;;
65279;SDS011;51878;55.748;48.742;2023-06-26T03:04:55;4.82;;;3.08;;
65279;SDS011;51878;55.748;48.742;2023-06-26T03:09:59;3.08;;;2.83;;
65279;SDS011;51878;55.748;48.742;2023-06-26T03:15:04;4.85;;;3.50;;
65279;SDS011;51878;55.748;48.742;2023-06-26T03:20:06;3.67;;;3.15;;
65279;SDS011;51878;55.748;48.742;2023-06-26T03:25:09;3.58;;;3.05;;
65279;SDS011;51878;55.748;48.742;2023-06-26T03:30:11;6.72;;;3.47;;
65279;SDS011;51878;55.748;48.742;2023-06-26T03:35:14;4.88;;;3.35;;
65279;SDS011;51878;55.748;48.742;2023-06-26T03:40:16;3.83;;;3.42;;
65279;SDS011;51878;55.748;48.742;2023-06-26T03:45:20;3.78;;;3.38;;
65279;SDS011;51878;55.748;48.742;2023-06-26T03:50:22;6.53;;;3.40;;
65279;SDS011;51878;55.748;48.742;2023-06-26T03:55:25;7.40;;;3.55;;
65279;SDS011;51878;55.748;48.742;2023-06-26T04:00:27;5.32;;;3.50;;
65279;SDS011;51878;55.748;48.742;2023-06-26T04:05:30;4.15;;;3.58;;
65279;SDS011;51878;55.748;48.742;2023-06-26T04:10:32;4.07;;;3.53;;
65279;SDS011;51878;55.748;48.742;2023-06-26T04:15:35;5.95;;;3.90;;
65279;SDS011;51878;55.748;48.742;2023-06-26T04:20:41;11.27;;;4.05;;
65279;SDS011;51878;55.748;48.742;2023-06-26T04:26:04;4.88;;;3.80;;
65279;SDS011;51878;55.748;48.742;2023-06-26T04:31:06;5.22;;;3.72;;
65279;SDS011;51878;55.748;48.742;2023-06-26T04:36:10;4.85;;;3.85;;
65279;SDS011;51878;55.748;48.742;2023-06-26T04:41:13;13.57;;;5.15;;
65279;SDS011;51878;55.748;48.742;2023-06-26T04:46:15;4.68;;;3.88;;
65279;SDS011;51878;55.748;48.742;2023-06-26T04:51:18;8.63;;;3.85;;
65279;SDS011;51878;55.748;48.742;2023-06-26T04:56:22;5.18;;;4.30;;
65279;SDS011;51878;55.748;48.742;2023-06-26T05:01:24;6.22;;;4.30;;
65279;SDS011;51878;55.748;48.742;2023-06-26T05:06:26;5.45;;;3.90;;
65279;SDS011;51878;55.748;48.742;2023-06-26T05:11:32;5.13;;;3.97;;
65279;SDS011;51878;55.748;48.742;2023-06-26T05:16:34;8.18;;;3.72;;
65279;SDS011;51878;55.748;48.742;2023-06-26T05:21:37;5.65;;;4.13;;
65279;SDS011;51878;55.748;48.742;2023-06-26T05:26:40;6.95;;;4.00;;
65279;SDS011;51878;55.748;48.742;2023-06-26T05:31:42;6.28;;;3.65;;
65279;SDS011;51878;55.748;48.742;2023-06-26T05:36:47;4.35;;;3.90;;
65279;SDS011;51878;55.748;48.742;2023-06-26T05:41:52;4.80;;;4.10;;
65279;SDS011;51878;55.748;48.742;2023-06-26T05:46:54;4.10;;;3.67;;
65279;SDS011;51878;55.748;48.742;2023-06-26T05:51:57;7.53;;;3.60;;
65279;SDS011;51878;55.748;48.742;2023-06-26T05:56:59;4.07;;;3.60;;
65279;SDS011;51878;55.748;48.742;2023-06-26T06:02:01;4.53;;;3.90;;
65279;SDS011;51878;55.748;48.742;2023-06-26T06:07:04;5.25;;;3.70;;
65279;SDS011;51878;55.748;48.742;2023-06-26T06:12:07;5.10;;;3.90;;
65279;SDS011;51878;55.748;48.742;2023-06-26T06:17:09;6.93;;;4.03;;
65279;SDS011;51878;55.748;48.742;2023-06-26T06:22:12;7.25;;;3.65;;
65279;SDS011;51878;55.748;48.742;2023-06-26T06:27:14;4.10;;;3.45;;
65279;SDS011;51878;55.748;48.742;2023-06-26T06:32:16;5.47;;;3.25;;
65279;SDS011;51878;55.748;48.742;2023-06-26T06:37:19;4.25;;;3.65;;
65279;SDS011;51878;55.748;48.742;2023-06-26T06:42:21;11.95;;;4.32;;
65279;SDS011;51878;55.748;48.742;2023-06-26T06:47:27;3.25;;;2.90;;
65279;SDS011;51878;55.748;48.742;2023-06-26T06:52:30;2.92;;;2.63;;
65279;SDS011;51878;55.748;48.742;2023-06-26T06:57:32;7.53;;;2.67;;
65279;SDS011;51878;55.748;48.742;2023-06-26T07:02:40;3.15;;;2.75;;
65279;SDS011;51878;55.748;48.742;2023-06-26T07:07:44;4.43;;;2.50;;
65279;SDS011;51878;55.748;48.742;2023-06-26T07:12:46;3.10;;;2.63;;
65279;SDS011;51878;55.748;48.742;2023-06-26T07:17:49;7.40;;;2.90;;
65279;SDS011;51878;55.748;48.742;2023-06-26T07:22:51;3.33;;;2.17;;
65279;SDS011;51878;55.748;48.742;2023-06-26T07:27:54;3.13;;;2.40;;
65279;SDS011;51878;55.748;48.742;2023-06-26T07:32:57;2.90;;;2.47;;
65279;SDS011;51878;55.748;48.742;2023-06-26T07:37:59;4.07;;;2.70;;
65279;SDS011;51878;55.748;48.742;2023-06-26T07:43:03;4.78;;;2.80;;
65279;SDS011;51878;55.748;48.742;2023-06-26T07:48:06;4.07;;;2.95;;
65279;SDS011;51878;55.748;48.742;2023-06-26T07:53:09;3.72;;;2.47;;
65279;SDS011;51878;55.748;48.742;2023-06-26T07:58:11;3.13;;;2.67;;
65279;SDS011;51878;55.748;48.742;2023-06-26T08:03:13;4.32;;;2.70;;
65279;SDS011;51878;55.748;48.742;2023-06-26T08:08:26;10.43;;;2.85;;
65279;SDS011;51878;55.748;48.742;2023-06-26T08:13:28;5.15;;;2.90;;
65279;SDS011;51878;55.748;48.742;2023-06-26T08:18:30;3.95;;;2.70;;
65279;SDS011;51878;55.748;48.742;2023-06-26T08:23:32;4.78;;;2.80;;
65279;SDS011;51878;55.748;48.742;2023-06-26T08:28:35;6.30;;;2.47;;
65279;SDS011;51878;55.748;48.742;2023-06-26T08:33:37;3.95;;;2.50;;
65279;SDS011;51878;55.748;48.742;2023-06-26T08:38:39;2.95;;;2.42;;
65279;SDS011;51878;55.748;48.742;2023-06-26T08:43:42;6.43;;;2.67;;
65279;SDS011;51878;55.748;48.742;2023-06-26T08:48:59;2.33;;;2.10;;
65279;SDS011;51878;55.748;48.742;2023-06-26T08:54:04;2.58;;;2.30;;
65279;SDS011;51878;55.748;48.742;2023-06-26T08:59:10;3.08;;;2.17;;
65279;SDS011;51878;55.748;48.742;2023-06-26T09:04:15;5.28;;;2.38;;
65279;SDS011;51878;55.748;48.742;2023-06-26T09:09:18;4.38;;;2.20;;
65279;SDS011;51878;55.748;48.742;2023-06-26T09:14:20;3.60;;;2.20;;
65279;SDS011;51878;55.748;48.742;2023-06-26T09:19:23;6.90;;;2.47;;
65279;SDS011;51878;55.748;48.742;2023-06-26T09:24:25;3.28;;;2.30;;
65279;SDS011;51878;55.748;48.742;2023-06-26T09:29:27;5.03;;;2.30;;
65279;SDS011;51878;55.748;48.742;2023-06-26T09:34:33;3.53;;;2.55;;
65279;SDS011;51878;55.748;48.742;2023-06-26T09:39:35;3.53;;;2.30;;
65279;SDS011;51878;55.748;48.742;2023-06-26T09:44:42;2.45;;;2.25;;
65279;SDS011;51878;55.748;48.742;2023-06-26T09:49:46;3.33;;;2.60;;
65279;SDS011;51878;55.748;48.742;2023-06-26T09:54:48;5.90;;;2.10;;
65279;SDS011;51878;55.748;48.742;2023-06-26T09:59:50;4.18;;;2.30;;
65279;SDS011;51878;55.748;48.742;2023-06-26T10:04:53;4.07;;;2.10;;
65279;SDS011;51878;55.748;48.742;2023-06-26T10:09:55;3.00;;;2.22;;
65279;SDS011;51878;55.748;48.742;2023-06-26T10:14:58;3.35;;;2.10;;
65279;SDS011;51878;55.748;48.742;2023-06-26T10:20:05;2.22;;;2.03;;
65279;SDS011;51878;55.748;48.742;2023-06-26T10:25:11;5.60;;;2.00;;
65279;SDS011;51878;55.748;48.742;2023-06-26T10:30:24;6.07;;;1.80;;
65279;SDS011;51878;55.748;48.742;2023-06-26T10:35:45;2.58;;;2.08;;
65279;SDS011;51878;55.748;48.742;2023-06-26T10:40:48;4.90;;;2.00;;
65279;SDS011;51878;55.748;48.742;2023-06-26T10:45:51;1.88;;;1.63;;
65279;SDS011;51878;55.748;48.742;2023-06-26T10:50:57;4.88;;;1.92;;
65279;SDS011;51878;55.748;48.742;2023-06-26T10:56:01;3.75;;;2.08;;
65279;SDS011;51878;55.748;48.742;2023-06-26T11:01:25;4.57;;;1.80;;
65279;SDS011;51878;55.748;48.742;2023-06-26T11:06:28;1.85;;;1.70;;
65279;SDS011;51878;55.748;48.742;2023-06-26T11:16:55;2.00;;;1.88;;
65279;SDS011;51878;55.748;48.742;2023-06-26T11:22:00;3.40;;;2.13;;
65279;SDS011;51878;55.748;48.742;2023-06-26T11:27:04;2.38;;;1.73;;
65279;SDS011;51878;55.748;48.742;2023-06-26T11:32:07;4.63;;;1.85;;
65279;SDS011;51878;55.748;48.742;2023-06-26T11:37:09;1.90;;;1.80;;
65279;SDS011;51878;55.748;48.742;2023-06-26T11:42:13;3.38;;;2.00;;
65279;SDS011;51878;55.748;48.742;2023-06-26T11:47:16;4.22;;;2.10;;
65279;SDS011;51878;55.748;48.742;2023-06-26T11:52:20;5.38;;;2.10;;
65279;SDS011;51878;55.748;48.742;2023-06-26T11:57:23;4.85;;;1.98;;
65279;SDS011;51878;55.748;48.742;2023-06-26T12:02:26;3.08;;;1.80;;
65279;SDS011;51878;55.748;48.742;2023-06-26T12:07:29;2.67;;;1.98;;
65279;SDS011;51878;55.748;48.742;2023-06-26T12:12:32;6.25;;;2.17;;
65279;SDS011;51878;55.748;48.742;2023-06-26T12:17:37;1.90;;;1.80;;
65279;SDS011;51878;55.748;48.742;2023-06-26T12:22:41;2.00;;;1.50;;
65279;SDS011;51878;55.748;48.742;2023-06-26T12:27:44;5.15;;;1.80;;
65279;SDS011;51878;55.748;48.742;2023-06-26T12:32:48;5.30;;;2.08;;
65279;SDS011;51878;55.748;48.742;2023-06-26T12:37:50;5.63;;;1.80;;
65279;SDS011;51878;55.748;48.742;2023-06-26T12:42:52;7.95;;;2.00;;
65279;SDS011;51878;55.748;48.742;2023-06-26T12:47:55;4.13;;;1.85;;
65279;SDS011;51878;55.748;48.742;2023-06-26T12:53:09;3.40;;;1.70;;
65279;SDS011;51878;55.748;48.742;2023-06-26T12:58:11;4.00;;;1.80;;
65279;SDS011;51878;55.748;48.742;2023-06-26T13:03:13;3.78;;;1.70;;
65279;SDS011;51878;55.748;48.742;2023-06-26T13:08:16;4.00;;;1.80;;
65279;SDS011;51878;55.748;48.742;2023-06-26T13:13:20;1.77;;;1.67;;
65279;SDS011;51878;55.748;48.742;2023-06-26T13:18:26;3.72;;;1.80;;
65279;SDS011;51878;55.748;48.742;2023-06-26T13:23:28;2.65;;;1.90;;
65279;SDS011;51878;55.748;48.742;2023-06-26T13:28:30;9.88;;;2.50;;
65279;SDS011;51878;55.748;48.742;2023-06-26T13:33:33;7.07;;;1.95;;
65279;SDS011;51878;55.748;48.742;2023-06-26T13:38:35;5.38;;;1.88;;
65279;SDS011;51878;55.748;48.742;2023-06-26T13:43:37;4.15;;;1.60;;
65279;SDS011;51878;55.748;48.742;2023-06-26T13:48:40;3.28;;;1.42;;
65279;SDS011;51878;55.748;48.742;2023-06-26T13:53:42;2.63;;;1.75;;
65279;SDS011;51878;55.748;48.742;2023-06-26T13:58:44;2.35;;;1.65;;
65279;SDS011;51878;55.748;48.742;2023-06-26T14:03:46;4.05;;;1.80;;
65279;SDS011;51878;55.748;48.742;2023-06-26T14:08:49;4.35;;;1.95;;
65279;SDS011;51878;55.748;48.742;2023-06-26T14:13:51;4.60;;;2.55;;
65279;SDS011;51878;55.748;48.742;2023-06-26T14:18:54;2.40;;;2.10;;
65279;SDS011;51878;55.748;48.742;2023-06-26T14:23:56;2.42;;;1.70;;
65279;SDS011;51878;55.748;48.742;2023-06-26T14:28:58;3.47;;;1.65;;
65279;SDS011;51878;55.748;48.742;2023-06-26T14:34:00;2.47;;;1.88;;
65279;SDS011;51878;55.748;48.742;2023-06-26T14:39:05;2.20;;;1.90;;
65279;SDS011;51878;55.748;48.742;2023-06-26T14:44:07;6.07;;;1.90;;
65279;SDS011;51878;55.748;48.742;2023-06-26T14:49:11;1.67;;;1.58;;
65279;SDS011;51878;55.748;48.742;2023-06-26T14:54:14;2.95;;;1.80;;
65279;SDS011;51878;55.748;48.742;2023-06-26T14:59:17;2.08;;;1.75;;
65279;SDS011;51878;55.748;48.742;2023-06-26T15:04:19;3.72;;;2.10;;
65279;SDS011;51878;55.748;48.742;2023-06-26T15:09:22;5.18;;;2.15;;
65279;SDS011;51878;55.748;48.742;2023-06-26T15:14:25;2.25;;;1.60;;
65279;SDS011;51878;55.748;48.742;2023-06-26T15:19:27;4.43;;;2.00;;
65279;SDS011;51878;55.748;48.742;2023-06-26T15:24:29;2.75;;;1.85;;
65279;SDS011;51878;55.748;48.742;2023-06-26T15:29:32;2.47;;;1.90;;
65279;SDS011;51878;55.748;48.742;2023-06-26T15:34:34;3.80;;;1.92;;
65279;SDS011;51878;55.748;48.742;2023-06-26T15:39:36;2.83;;;1.90;;
65279;SDS011;51878;55.748;48.742;2023-06-26T15:44:41;4.32;;;1.63;;
65279;SDS011;51878;55.748;48.742;2023-06-26T15:49:43;4.30;;;2.08;;
65279;SDS011;51878;55.748;48.742;2023-06-26T15:54:46;4.35;;;2.20;;
65279;SDS011;51878;55.748;48.742;2023-06-26T15:59:48;2.22;;;1.98;;
65279;SDS011;51878;55.748;48.742;2023-06-26T16:04:51;2.88;;;2.03;;
65279;SDS011;51878;55.748;48.742;2023-06-26T16:09:53;3.50;;;2.10;;
65279;SDS011;51878;55.748;48.742;2023-06-26T16:14:55;8.88;;;2.33;;
65279;SDS011;51878;55.748;48.742;2023-06-26T16:19:57;2.10;;;1.90;;
65279;SDS011;51878;55.748;48.742;2023-06-26T16:25:00;5.15;;;2.17;;
65279;SDS011;51878;55.748;48.742;2023-06-26T16:30:04;2.65;;;2.03;;
65279;SDS011;51878;55.748;48.742;2023-06-26T16:35:07;3.75;;;2.10;;
65279;SDS011;51878;55.748;48.742;2023-06-26T16:40:09;2.92;;;2.10;;
65279;SDS011;51878;55.748;48.742;2023-06-26T16:45:12;5.35;;;2.15;;
65279;SDS011;51878;55.748;48.742;2023-06-26T16:50:14;5.78;;;2.17;;
65279;SDS011;51878;55.748;48.742;2023-06-26T16:55:17;5.57;;;2.28;;
65279;SDS011;51878;55.748;48.742;2023-06-26T17:00:19;5.15;;;2.00;;
65279;SDS011;51878;55.748;48.742;2023-06-26T17:05:22;4.28;;;2.25;;
65279;SDS011;51878;55.748;48.742;2023-06-26T17:10:24;5.90;;;2.58;;
65279;SDS011;51878;55.748;48.742;2023-06-26T17:15:26;3.25;;;2.25;;
65279;SDS011;51878;55.748;48.742;2023-06-26T17:20:29;3.92;;;3.00;;
65279;SDS011;51878;55.748;48.742;2023-06-26T17:25:35;4.85;;;2.22;;
65279;SDS011;51878;55.748;48.742;2023-06-26T17:30:37;8.48;;;2.10;;
65279;SDS011;51878;55.748;48.742;2023-06-26T17:35:43;18.55;;;3.90;;
65279;SDS011;51878;55.748;48.742;2023-06-26T17:40:45;45.65;;;32.63;;
65279;SDS011;51878;55.748;48.742;2023-06-26T17:45:48;27.75;;;23.58;;
65279;SDS011;51878;55.748;48.742;2023-06-26T17:50:50;24.95;;;18.05;;
65279;SDS011;51878;55.748;48.742;2023-06-26T17:55:52;6.15;;;4.30;;
65279;SDS011;51878;55.748;48.742;2023-06-26T18:00:54;8.23;;;3.10;;
65279;SDS011;51878;55.748;48.742;2023-06-26T18:05:57;5.30;;;2.50;;
65279;SDS011;51878;55.748;48.742;2023-06-26T18:10:59;3.10;;;2.10;;
65279;SDS011;51878;55.748;48.742;2023-06-26T18:16:02;4.28;;;2.42;;
65279;SDS011;51878;55.748;48.742;2023-06-26T18:21:04;10.10;;;2.70;;
65279;SDS011;51878;55.748;48.742;2023-06-26T18:26:06;3.33;;;2.65;;
65279;SDS011;51878;55.748;48.742;2023-06-26T18:31:09;7.93;;;2.90;;
65279;SDS011;51878;55.748;48.742;2023-06-26T18:36:11;3.83;;;3.05;;
65279;SDS011;51878;55.748;48.742;2023-06-26T18:41:16;3.92;;;2.50;;
65279;SDS011;51878;55.748;48.742;2023-06-26T18:46:19;6.93;;;2.33;;
65279;SDS011;51878;55.748;48.742;2023-06-26T18:51:22;3.97;;;2.85;;
65279;SDS011;51878;55.748;48.742;2023-06-26T18:56:24;6.45;;;3.22;;
65279;SDS011;51878;55.748;48.742;2023-06-26T19:01:28;6.57;;;3.05;;
65279;SDS011;51878;55.748;48.742;2023-06-26T19:06:33;6.18;;;2.70;;
65279;SDS011;51878;55.748;48.742;2023-06-26T19:11:36;8.80;;;2.90;;
65279;SDS011;51878;55.748;48.742;2023-06-26T19:16:38;14.45;;;8.88;;
65279;SDS011;51878;55.748;48.742;2023-06-26T19:21:40;12.40;;;9.07;;
65279;SDS011;51878;55.748;48.742;2023-06-26T19:26:43;9.13;;;7.28;;
65279;SDS011;51878;55.748;48.742;2023-06-26T19:31:45;13.50;;;7.93;;
65279;SDS011;51878;55.748;48.742;2023-06-26T19:36:49;5.43;;;3.50;;
65279;SDS011;51878;55.748;48.742;2023-06-26T19:41:52;8.35;;;3.20;;
65279;SDS011;51878;55.748;48.742;2023-06-26T19:46:55;4.43;;;2.80;;
65279;SDS011;51878;55.748;48.742;2023-06-26T19:51:57;3.92;;;2.90;;
65279;SDS011;51878;55.748;48.742;2023-06-26T19:56:59;5.38;;;2.75;;
65279;SDS011;51878;55.748;48.742;2023-06-26T20:02:01;5.10;;;3.42;;
65279;SDS011;51878;55.748;48.742;2023-06-26T20:07:04;7.90;;;3.70;;
65279;SDS011;51878;55.748;48.742;2023-06-26T20:12:08;4.55;;;3.17;;
65279;SDS011;51878;55.748;48.742;2023-06-26T20:17:10;5.50;;;3.30;;
65279;SDS011;51878;55.748;48.742;2023-06-26T20:22:15;7.03;;;5.35;;
65279;SDS011;51878;55.748;48.742;2023-06-26T20:27:17;3.63;;;3.08;;
65279;SDS011;51878;55.748;48.742;2023-06-26T20:32:19;3.97;;;2.70;;
65279;SDS011;51878;55.748;48.742;2023-06-26T20:37:22;4.60;;;3.03;;
65279;SDS011;51878;55.748;48.742;2023-06-26T20:42:24;4.43;;;2.78;;
65279;SDS011;51878;55.748;48.742;2023-06-26T20:47:26;3.72;;;2.67;;
65279;SDS011;51878;55.748;48.742;2023-06-26T20:52:34;3.05;;;2.53;;
65279;SDS011;51878;55.748;48.742;2023-06-26T20:57:46;6.85;;;3.30;;
65279;SDS011;51878;55.748;48.742;2023-06-26T21:02:48;4.15;;;3.10;;
65279;SDS011;51878;55.748;48.742;2023-06-26T21:07:51;3.60;;;2.65;;
65279;SDS011;51878;55.748;48.742;2023-06-26T21:12:53;5.07;;;3.20;;
65279;SDS011;51878;55.748;48.742;2023-06-26T21:17:56;4.95;;;2.70;;
65279;SDS011;51878;55.748;48.742;2023-06-26T21:22:58;4.43;;;2.83;;
65279;SDS011;51878;55.748;48.742;2023-06-26T21:28:00;4.38;;;2.90;;
65279;SDS011;51878;55.748;48.742;2023-06-26T21:33:02;3.88;;;3.10;;
65279;SDS011;51878;55.748;48.742;2023-06-26T21:38:04;4.57;;;3.03;;
65279;SDS011;51878;55.748;48.742;2023-06-26T21:43:07;5.00;;;3.00;;
65279;SDS011;51878;55.748;48.742;2023-06-26T21:48:09;4.07;;;2.65;;
65279;SDS011;51878;55.748;48.742;2023-06-26T21:53:11;6.88;;;3.05;;
65279;SDS011;51878;55.748;48.742;2023-06-26T21:58:13;9.77;;;3.78;;
65279;SDS011;51878;55.748;48.742;2023-06-26T22:03:15;5.32;;;3.28;;
65279;SDS011;51878;55.748;48.742;2023-06-26T22:08:18;4.35;;;2.97;;
65279;SDS011;51878;55.748;48.742;2023-06-26T22:13:20;5.45;;;3.00;;
65279;SDS011;51878;55.748;48.742;2023-06-26T22:18:22;4.80;;;2.85;;
65279;SDS011;51878;55.748;48.742;2023-06-26T22:23:24;4.57;;;2.92;;
65279;SDS011;51878;55.748;48.742;2023-06-26T22:28:27;3.20;;;2.72;;
65279;SDS011;51878;55.748;48.742;2023-06-26T22:33:29;4.45;;;3.13;;
65279;SDS011;51878;55.748;48.742;2023-06-26T22:38:31;3.53;;;3.03;;
65279;SDS011;51878;55.748;48.742;2023-06-26T22:43:33;4.18;;;3.15;;
65279;SDS011;51878;55.748;48.742;2023-06-26T22:48:37;6.68;;;3.03;;
65279;SDS011;51878;55.748;48.742;2023-06-26T22:53:39;4.38;;;3.03;;
65279;SDS011;51878;55.748;48.742;2023-06-26T22:58:41;4.03;;;3.20;;
65279;SDS011;51878;55.748;48.742;2023-06-26T23:03:43;4.65;;;3.28;;
65279;SDS011;51878;55.748;48.742;2023-06-26T23:08:46;4.53;;;3.22;;
65279;SDS011;51878;55.748;48.742;2023-06-26T23:13:49;4.80;;;3.03;;
65279;SDS011;51878;55.748;48.742;2023-06-26T23:18:52;3.20;;;2.80;;
65279;SDS011;51878;55.748;48.742;2023-06-26T23:31:12;6.07;;;4.05;;
65279;SDS011;51878;55.748;48.742;2023-06-26T23:36:19;5.82;;;3.85;;
65279;SDS011;51878;55.748;48.742;2023-06-26T23:41:23;6.30;;;3.65;;
65279;SDS011;51878;55.748;48.742;2023-06-26T23:46:25;6.40;;;3.95;;
65279;SDS011;51878;55.748;48.742;2023-06-26T23:51:30;6.18;;;4.20;;
65279;SDS011;51878;55.748;48.742;2023-06-26T23:56:39;5.80;;;4.22;;
